Skip Navigation Links
NOAA logo - Click to go to the NOAA homepage
NOAA's National Weather Service
Alaska Aviation Weather Unit
  NWS logo - Click to go to the NWS homepage
Left Navbar Graphic     10 AKDT = 18 GMT

   
NOAA is celebrating 200 years of science, service, and stewardship. Visit the NOAA 200th celebration Web site to learn more.
USA.gov is the U.S. Government's official Web portal to all Federal, state and local government Web resources and services.
Facebook
NWS on Facebook

Important Change Regarding the AAWU Web Presence

 

Over the last several months, the AAWU has been working to navigate its webpages to a nationally supported server. Security, as well as other needs, have necessitated the change.  We have been given an extension for the site changeover while we diligently work at addressing feedback received. As of July 14, 2017, aawu.arh.noaa.gov will be discontinued. The new AAWU web address is weather.gov/aawu. It is now live and will run in-parallel with the old site until it is discontinued on July 14, 2017. Please continue to send any feedback or questions regarding the new webpages to nws.ar.aawu.webauthors@noaa.gov.  Thank you for your patience during this time of transition.
AAWU Home :: Display TAF Add Bookmark
TAF PABR 261728Z 2618/2718  28011KT P6SM FEW026 OVC040
     FM262200 23012KT P6SM VCSH SCT015 BKN025 BKN050
     FM270300 20010KT P6SM -SHSN SCT025 BKN050 BKN100
     FM271000 18008KT P6SM VCSH BKN025 OVC050=

3363
FTAK31 PAFA 261728
TAFASC
TAF
SPECI PABR 261208Z AUTO 27012KT 10SM SCT017 BKN042 02/01 A3004 RMK AO2
     SNE1158 P0000 T00170006 TSNO $=

PABR 261253Z AUTO 27012KT 10SM FEW040 02/00 A3004=

PABR 261353Z 28016KT 10SM FEW022 SCT032 SCT043 02/00 A3004=

PABR 261453Z 28014KT 10SM FEW029 OVC046 01/00 A3005=

PABR 261553Z 28010KT 10SM OVC041 02/00 A3005=

PABR 261653Z 28011KT 10SM FEW026 OVC040 02/00 A3007=

PABR 261738Z 25009KT 4SM R07/5500VP6000FT -RA BR FEW016 BKN024
OVC034 01/00 A3006=

SPECI PABR 261738Z 25009KT 4SM R07/5500VP6000FT -RA BR FEW016 BKN024
     OVC034 01/00 A3006 RMK AO2 VIS 2 1/2 NE RAB33 CIG 016 NE
     P0001 T00110000 $=

PABR 261753Z 25007KT 10SM -RA FEW017 SCT026 OVC045 02/01 A3006=


NOAA's National Weather Service
Alaska Aviation Weather Unit
6930 Sand Lake Road
Anchorage, AK 99502-1845
Disclaimer
Credits
Glossary
Privacy Policy
About Us
Career Opportunities
Contact AAWU Internet Services Site last modified: April, 17th 2012